sensor_id;sensor_type;location;lat;lon;timestamp;P1;durP1;ratioP1;P2;durP2;ratioP2
34035;SDS011;63481;52.588;22.472;2023-05-23T00:01:09;8.60;;;5.00;;
34035;SDS011;63481;52.588;22.472;2023-05-23T00:02:02;10.80;;;5.00;;
34035;SDS011;63481;52.588;22.472;2023-05-23T00:02:59;12.10;;;5.50;;
34035;SDS011;63481;52.588;22.472;2023-05-23T00:03:52;8.90;;;4.90;;
34035;SDS011;63481;52.588;22.472;2023-05-23T00:04:47;9.90;;;5.10;;
34035;SDS011;63481;52.588;22.472;2023-05-23T00:05:40;12.70;;;6.60;;
34035;SDS011;63481;52.588;22.472;2023-05-23T00:06:33;10.40;;;5.10;;
34035;SDS011;63481;52.588;22.472;2023-05-23T00:07:25;12.70;;;5.40;;
34035;SDS011;63481;52.588;22.472;2023-05-23T00:08:18;14.00;;;6.30;;
34035;SDS011;63481;52.588;22.472;2023-05-23T00:09:12;11.50;;;5.60;;
34035;SDS011;63481;52.588;22.472;2023-05-23T00:10:05;11.10;;;5.80;;
34035;SDS011;63481;52.588;22.472;2023-05-23T00:10:58;14.90;;;5.90;;
34035;SDS011;63481;52.588;22.472;2023-05-23T00:11:51;12.50;;;5.80;;
34035;SDS011;63481;52.588;22.472;2023-05-23T00:12:44;10.00;;;5.30;;
34035;SDS011;63481;52.588;22.472;2023-05-23T00:13:39;12.20;;;5.40;;
34035;SDS011;63481;52.588;22.472;2023-05-23T00:14:32;11.40;;;6.00;;
34035;SDS011;63481;52.588;22.472;2023-05-23T00:15:26;11.20;;;5.40;;
34035;SDS011;63481;52.588;22.472;2023-05-23T00:16:19;10.50;;;5.90;;
34035;SDS011;63481;52.588;22.472;2023-05-23T00:17:12;30.80;;;6.40;;
34035;SDS011;63481;52.588;22.472;2023-05-23T00:18:05;13.70;;;5.60;;
34035;SDS011;63481;52.588;22.472;2023-05-23T00:19:00;9.80;;;5.40;;
34035;SDS011;63481;52.588;22.472;2023-05-23T00:19:52;8.80;;;4.80;;
34035;SDS011;63481;52.588;22.472;2023-05-23T00:20:47;8.80;;;4.90;;
34035;SDS011;63481;52.588;22.472;2023-05-23T00:21:39;12.90;;;5.50;;
34035;SDS011;63481;52.588;22.472;2023-05-23T00:22:33;11.80;;;5.10;;
34035;SDS011;63481;52.588;22.472;2023-05-23T00:23:25;9.20;;;5.30;;
34035;SDS011;63481;52.588;22.472;2023-05-23T00:24:20;11.50;;;5.70;;
34035;SDS011;63481;52.588;22.472;2023-05-23T00:25:13;9.80;;;5.50;;
34035;SDS011;63481;52.588;22.472;2023-05-23T00:26:05;9.70;;;6.00;;
34035;SDS011;63481;52.588;22.472;2023-05-23T00:26:58;10.40;;;5.70;;
34035;SDS011;63481;52.588;22.472;2023-05-23T00:27:50;10.50;;;5.00;;
34035;SDS011;63481;52.588;22.472;2023-05-23T00:28:43;11.80;;;6.00;;
34035;SDS011;63481;52.588;22.472;2023-05-23T00:29:35;11.90;;;5.90;;
34035;SDS011;63481;52.588;22.472;2023-05-23T00:30:31;8.80;;;5.40;;
34035;SDS011;63481;52.588;22.472;2023-05-23T00:31:24;14.80;;;5.70;;
34035;SDS011;63481;52.588;22.472;2023-05-23T00:32:17;10.20;;;5.40;;
34035;SDS011;63481;52.588;22.472;2023-05-23T00:33:09;9.90;;;5.40;;
34035;SDS011;63481;52.588;22.472;2023-05-23T00:34:05;15.80;;;5.30;;
34035;SDS011;63481;52.588;22.472;2023-05-23T00:34:57;8.70;;;5.40;;
34035;SDS011;63481;52.588;22.472;2023-05-23T00:35:50;9.90;;;5.40;;
34035;SDS011;63481;52.588;22.472;2023-05-23T00:36:43;9.00;;;5.60;;
34035;SDS011;63481;52.588;22.472;2023-05-23T00:37:39;11.40;;;5.80;;
34035;SDS011;63481;52.588;22.472;2023-05-23T00:38:32;14.80;;;6.00;;
34035;SDS011;63481;52.588;22.472;2023-05-23T00:39:24;12.40;;;5.70;;
34035;SDS011;63481;52.588;22.472;2023-05-23T00:40:17;10.10;;;5.50;;
34035;SDS011;63481;52.588;22.472;2023-05-23T00:41:10;12.80;;;6.00;;
34035;SDS011;63481;52.588;22.472;2023-05-23T00:42:03;9.50;;;5.10;;
34035;SDS011;63481;52.588;22.472;2023-05-23T00:42:57;10.90;;;5.20;;
34035;SDS011;63481;52.588;22.472;2023-05-23T00:43:50;11.20;;;5.70;;
34035;SDS011;63481;52.588;22.472;2023-05-23T00:44:44;11.40;;;5.40;;
34035;SDS011;63481;52.588;22.472;2023-05-23T00:45:37;11.40;;;5.40;;
34035;SDS011;63481;52.588;22.472;2023-05-23T00:46:30;11.50;;;5.40;;
34035;SDS011;63481;52.588;22.472;2023-05-23T00:47:23;12.80;;;5.10;;
34035;SDS011;63481;52.588;22.472;2023-05-23T00:48:17;10.40;;;5.20;;
34035;SDS011;63481;52.588;22.472;2023-05-23T00:49:10;15.10;;;5.70;;
34035;SDS011;63481;52.588;22.472;2023-05-23T00:50:09;12.10;;;5.60;;
34035;SDS011;63481;52.588;22.472;2023-05-23T00:51:03;10.70;;;5.50;;
34035;SDS011;63481;52.588;22.472;2023-05-23T00:51:56;12.30;;;5.80;;
34035;SDS011;63481;52.588;22.472;2023-05-23T00:52:50;10.30;;;5.40;;
34035;SDS011;63481;52.588;22.472;2023-05-23T00:53:43;9.10;;;5.20;;
34035;SDS011;63481;52.588;22.472;2023-05-23T00:54:37;10.50;;;4.90;;
34035;SDS011;63481;52.588;22.472;2023-05-23T00:55:31;9.90;;;5.40;;
34035;SDS011;63481;52.588;22.472;2023-05-23T00:56:24;9.50;;;5.30;;
34035;SDS011;63481;52.588;22.472;2023-05-23T00:57:18;12.70;;;5.40;;
34035;SDS011;63481;52.588;22.472;2023-05-23T00:58:10;10.70;;;5.70;;
34035;SDS011;63481;52.588;22.472;2023-05-23T00:59:06;13.20;;;5.50;;
34035;SDS011;63481;52.588;22.472;2023-05-23T01:00:02;13.50;;;5.60;;
34035;SDS011;63481;52.588;22.472;2023-05-23T01:00:55;17.50;;;5.50;;
34035;SDS011;63481;52.588;22.472;2023-05-23T01:01:48;12.10;;;5.30;;
34035;SDS011;63481;52.588;22.472;2023-05-23T01:02:43;9.70;;;5.30;;
34035;SDS011;63481;52.588;22.472;2023-05-23T01:03:37;10.90;;;5.60;;
34035;SDS011;63481;52.588;22.472;2023-05-23T01:04:30;13.00;;;5.60;;
34035;SDS011;63481;52.588;22.472;2023-05-23T01:05:25;10.60;;;6.20;;
34035;SDS011;63481;52.588;22.472;2023-05-23T01:06:18;11.90;;;5.90;;
34035;SDS011;63481;52.588;22.472;2023-05-23T01:07:12;11.50;;;5.70;;
34035;SDS011;63481;52.588;22.472;2023-05-23T01:08:05;9.70;;;6.10;;
34035;SDS011;63481;52.588;22.472;2023-05-23T01:08:59;10.40;;;5.70;;
34035;SDS011;63481;52.588;22.472;2023-05-23T01:09:54;11.00;;;6.50;;
34035;SDS011;63481;52.588;22.472;2023-05-23T01:10:46;10.70;;;6.20;;
34035;SDS011;63481;52.588;22.472;2023-05-23T01:11:42;11.40;;;5.90;;
34035;SDS011;63481;52.588;22.472;2023-05-23T01:12:52;11.90;;;6.00;;
34035;SDS011;63481;52.588;22.472;2023-05-23T01:14:21;10.70;;;5.40;;
34035;SDS011;63481;52.588;22.472;2023-05-23T01:15:20;11.10;;;5.70;;
34035;SDS011;63481;52.588;22.472;2023-05-23T01:16:29;14.20;;;6.70;;
34035;SDS011;63481;52.588;22.472;2023-05-23T01:17:33;10.70;;;6.50;;
34035;SDS011;63481;52.588;22.472;2023-05-23T01:18:32;12.30;;;6.30;;
34035;SDS011;63481;52.588;22.472;2023-05-23T01:19:50;12.40;;;6.40;;
34035;SDS011;63481;52.588;22.472;2023-05-23T01:20:52;10.90;;;6.00;;
34035;SDS011;63481;52.588;22.472;2023-05-23T01:21:47;13.10;;;6.50;;
34035;SDS011;63481;52.588;22.472;2023-05-23T01:28:36;13.50;;;6.00;;
34035;SDS011;63481;52.588;22.472;2023-05-23T01:30:35;12.20;;;5.70;;
34035;SDS011;63481;52.588;22.472;2023-05-23T01:31:31;13.60;;;6.40;;
34035;SDS011;63481;52.588;22.472;2023-05-23T01:32:28;11.90;;;5.80;;
34035;SDS011;63481;52.588;22.472;2023-05-23T01:33:24;10.40;;;5.80;;
34035;SDS011;63481;52.588;22.472;2023-05-23T01:34:18;12.80;;;6.40;;
34035;SDS011;63481;52.588;22.472;2023-05-23T01:35:12;13.10;;;6.40;;
34035;SDS011;63481;52.588;22.472;2023-05-23T01:36:07;12.50;;;6.90;;
34035;SDS011;63481;52.588;22.472;2023-05-23T01:37:00;11.10;;;6.10;;
34035;SDS011;63481;52.588;22.472;2023-05-23T01:37:55;12.10;;;6.30;;
34035;SDS011;63481;52.588;22.472;2023-05-23T01:38:49;11.10;;;5.90;;
34035;SDS011;63481;52.588;22.472;2023-05-23T01:39:42;24.40;;;6.40;;
34035;SDS011;63481;52.588;22.472;2023-05-23T01:40:36;14.70;;;6.20;;
34035;SDS011;63481;52.588;22.472;2023-05-23T01:41:30;10.00;;;5.70;;
34035;SDS011;63481;52.588;22.472;2023-05-23T01:42:22;13.10;;;6.40;;
34035;SDS011;63481;52.588;22.472;2023-05-23T01:43:16;10.90;;;6.20;;
34035;SDS011;63481;52.588;22.472;2023-05-23T01:44:09;14.60;;;6.70;;
34035;SDS011;63481;52.588;22.472;2023-05-23T01:45:02;10.60;;;6.00;;
34035;SDS011;63481;52.588;22.472;2023-05-23T01:45:56;11.90;;;6.30;;
34035;SDS011;63481;52.588;22.472;2023-05-23T01:46:52;12.20;;;6.40;;
34035;SDS011;63481;52.588;22.472;2023-05-23T01:47:44;11.30;;;6.00;;
34035;SDS011;63481;52.588;22.472;2023-05-23T01:48:40;11.10;;;5.70;;
34035;SDS011;63481;52.588;22.472;2023-05-23T01:49:34;12.50;;;6.00;;
34035;SDS011;63481;52.588;22.472;2023-05-23T01:50:28;12.90;;;6.30;;
34035;SDS011;63481;52.588;22.472;2023-05-23T01:51:23;11.90;;;5.90;;
34035;SDS011;63481;52.588;22.472;2023-05-23T01:52:15;12.10;;;6.20;;
34035;SDS011;63481;52.588;22.472;2023-05-23T01:53:08;10.20;;;6.50;;
34035;SDS011;63481;52.588;22.472;2023-05-23T01:54:01;12.90;;;6.40;;
34035;SDS011;63481;52.588;22.472;2023-05-23T01:54:54;12.30;;;6.50;;
34035;SDS011;63481;52.588;22.472;2023-05-23T01:55:48;12.40;;;6.50;;
34035;SDS011;63481;52.588;22.472;2023-05-23T01:56:42;11.70;;;6.80;;
34035;SDS011;63481;52.588;22.472;2023-05-23T01:57:37;14.20;;;7.00;;
34035;SDS011;63481;52.588;22.472;2023-05-23T01:58:30;11.00;;;6.80;;
34035;SDS011;63481;52.588;22.472;2023-05-23T01:59:23;12.00;;;6.40;;
34035;SDS011;63481;52.588;22.472;2023-05-23T02:00:16;15.20;;;6.70;;
34035;SDS011;63481;52.588;22.472;2023-05-23T02:01:11;10.70;;;6.40;;
34035;SDS011;63481;52.588;22.472;2023-05-23T02:02:04;12.00;;;6.70;;
34035;SDS011;63481;52.588;22.472;2023-05-23T02:02:57;11.30;;;6.50;;
34035;SDS011;63481;52.588;22.472;2023-05-23T02:03:50;10.80;;;5.90;;
34035;SDS011;63481;52.588;22.472;2023-05-23T02:04:43;11.80;;;6.30;;
34035;SDS011;63481;52.588;22.472;2023-05-23T02:05:35;12.30;;;6.80;;
34035;SDS011;63481;52.588;22.472;2023-05-23T02:06:28;11.60;;;6.00;;
34035;SDS011;63481;52.588;22.472;2023-05-23T02:07:20;14.20;;;6.10;;
34035;SDS011;63481;52.588;22.472;2023-05-23T02:08:14;11.10;;;6.10;;
34035;SDS011;63481;52.588;22.472;2023-05-23T02:09:07;14.90;;;6.60;;
34035;SDS011;63481;52.588;22.472;2023-05-23T02:09:59;11.40;;;6.60;;
34035;SDS011;63481;52.588;22.472;2023-05-23T02:10:52;13.20;;;6.40;;
34035;SDS011;63481;52.588;22.472;2023-05-23T02:11:45;10.50;;;6.10;;
34035;SDS011;63481;52.588;22.472;2023-05-23T02:12:38;13.40;;;6.20;;
34035;SDS011;63481;52.588;22.472;2023-05-23T02:13:30;12.90;;;6.20;;
34035;SDS011;63481;52.588;22.472;2023-05-23T02:14:23;10.10;;;5.70;;
34035;SDS011;63481;52.588;22.472;2023-05-23T02:15:17;11.40;;;5.70;;
34035;SDS011;63481;52.588;22.472;2023-05-23T02:16:10;12.90;;;6.00;;
34035;SDS011;63481;52.588;22.472;2023-05-23T02:17:02;9.90;;;5.70;;
34035;SDS011;63481;52.588;22.472;2023-05-23T02:17:55;10.80;;;6.00;;
34035;SDS011;63481;52.588;22.472;2023-05-23T02:18:48;10.70;;;6.00;;
34035;SDS011;63481;52.588;22.472;2023-05-23T02:19:43;10.20;;;6.50;;
34035;SDS011;63481;52.588;22.472;2023-05-23T02:20:36;10.50;;;5.90;;
34035;SDS011;63481;52.588;22.472;2023-05-23T02:21:29;13.10;;;6.00;;
34035;SDS011;63481;52.588;22.472;2023-05-23T02:22:22;10.60;;;6.30;;
34035;SDS011;63481;52.588;22.472;2023-05-23T02:23:16;12.20;;;6.20;;
34035;SDS011;63481;52.588;22.472;2023-05-23T02:24:09;12.10;;;6.00;;
34035;SDS011;63481;52.588;22.472;2023-05-23T02:25:02;9.80;;;5.40;;
34035;SDS011;63481;52.588;22.472;2023-05-23T02:25:55;10.80;;;6.10;;
34035;SDS011;63481;52.588;22.472;2023-05-23T02:26:48;10.80;;;5.70;;
34035;SDS011;63481;52.588;22.472;2023-05-23T02:27:42;11.00;;;5.50;;
34035;SDS011;63481;52.588;22.472;2023-05-23T02:28:34;11.20;;;6.00;;
34035;SDS011;63481;52.588;22.472;2023-05-23T02:29:27;12.60;;;5.70;;
34035;SDS011;63481;52.588;22.472;2023-05-23T02:30:20;10.10;;;5.90;;
34035;SDS011;63481;52.588;22.472;2023-05-23T02:31:15;13.10;;;5.40;;
34035;SDS011;63481;52.588;22.472;2023-05-23T02:32:08;9.80;;;5.30;;
34035;SDS011;63481;52.588;22.472;2023-05-23T02:33:03;11.00;;;5.70;;
34035;SDS011;63481;52.588;22.472;2023-05-23T02:33:56;10.10;;;6.30;;
34035;SDS011;63481;52.588;22.472;2023-05-23T02:34:49;11.20;;;6.30;;
34035;SDS011;63481;52.588;22.472;2023-05-23T02:35:42;10.60;;;5.70;;
34035;SDS011;63481;52.588;22.472;2023-05-23T02:36:35;13.40;;;6.00;;
34035;SDS011;63481;52.588;22.472;2023-05-23T02:37:28;13.30;;;6.50;;
34035;SDS011;63481;52.588;22.472;2023-05-23T02:38:21;11.30;;;6.20;;
34035;SDS011;63481;52.588;22.472;2023-05-23T02:39:13;9.20;;;5.20;;
34035;SDS011;63481;52.588;22.472;2023-05-23T02:40:06;11.60;;;5.90;;
34035;SDS011;63481;52.588;22.472;2023-05-23T02:40:59;11.10;;;5.80;;
34035;SDS011;63481;52.588;22.472;2023-05-23T02:41:52;10.60;;;6.40;;
34035;SDS011;63481;52.588;22.472;2023-05-23T02:42:45;9.90;;;5.90;;
34035;SDS011;63481;52.588;22.472;2023-05-23T02:43:37;9.70;;;5.80;;
34035;SDS011;63481;52.588;22.472;2023-05-23T02:44:32;11.60;;;6.50;;
34035;SDS011;63481;52.588;22.472;2023-05-23T02:45:24;13.50;;;7.30;;
34035;SDS011;63481;52.588;22.472;2023-05-23T02:46:17;13.20;;;5.90;;
34035;SDS011;63481;52.588;22.472;2023-05-23T02:47:09;10.40;;;6.10;;
34035;SDS011;63481;52.588;22.472;2023-05-23T02:48:02;12.00;;;6.20;;
34035;SDS011;63481;52.588;22.472;2023-05-23T02:48:54;10.00;;;5.60;;
34035;SDS011;63481;52.588;22.472;2023-05-23T02:49:47;11.00;;;5.40;;
34035;SDS011;63481;52.588;22.472;2023-05-23T02:50:40;11.20;;;5.90;;
34035;SDS011;63481;52.588;22.472;2023-05-23T02:51:32;11.20;;;5.90;;
34035;SDS011;63481;52.588;22.472;2023-05-23T02:52:25;10.70;;;6.00;;
34035;SDS011;63481;52.588;22.472;2023-05-23T02:53:19;12.90;;;6.20;;
34035;SDS011;63481;52.588;22.472;2023-05-23T02:54:12;11.40;;;6.30;;
34035;SDS011;63481;52.588;22.472;2023-05-23T02:55:05;12.00;;;6.30;;
34035;SDS011;63481;52.588;22.472;2023-05-23T02:56:02;12.80;;;6.30;;
34035;SDS011;63481;52.588;22.472;2023-05-23T02:56:55;9.90;;;5.50;;
34035;SDS011;63481;52.588;22.472;2023-05-23T02:57:47;9.70;;;5.20;;
34035;SDS011;63481;52.588;22.472;2023-05-23T02:58:41;11.40;;;6.00;;
34035;SDS011;63481;52.588;22.472;2023-05-23T02:59:34;17.50;;;5.90;;
34035;SDS011;63481;52.588;22.472;2023-05-23T03:00:26;8.60;;;5.30;;
34035;SDS011;63481;52.588;22.472;2023-05-23T03:01:20;15.60;;;5.90;;
34035;SDS011;63481;52.588;22.472;2023-05-23T03:02:14;21.30;;;5.60;;
34035;SDS011;63481;52.588;22.472;2023-05-23T03:03:07;10.00;;;5.60;;
34035;SDS011;63481;52.588;22.472;2023-05-23T03:04:00;10.40;;;6.30;;
34035;SDS011;63481;52.588;22.472;2023-05-23T03:04:52;13.00;;;6.70;;
34035;SDS011;63481;52.588;22.472;2023-05-23T03:05:47;13.30;;;6.30;;
34035;SDS011;63481;52.588;22.472;2023-05-23T03:06:39;12.80;;;6.10;;
34035;SDS011;63481;52.588;22.472;2023-05-23T03:07:33;13.30;;;6.50;;
34035;SDS011;63481;52.588;22.472;2023-05-23T03:08:25;10.80;;;6.60;;
34035;SDS011;63481;52.588;22.472;2023-05-23T03:09:18;12.20;;;5.80;;
34035;SDS011;63481;52.588;22.472;2023-05-23T03:10:11;14.30;;;6.30;;
34035;SDS011;63481;52.588;22.472;2023-05-23T03:11:03;11.60;;;6.50;;
34035;SDS011;63481;52.588;22.472;2023-05-23T03:11:56;19.50;;;6.20;;
34035;SDS011;63481;52.588;22.472;2023-05-23T03:12:48;11.20;;;6.00;;
34035;SDS011;63481;52.588;22.472;2023-05-23T03:13:42;16.60;;;6.30;;
34035;SDS011;63481;52.588;22.472;2023-05-23T03:14:34;11.80;;;6.40;;
34035;SDS011;63481;52.588;22.472;2023-05-23T03:15:27;10.50;;;6.20;;
34035;SDS011;63481;52.588;22.472;2023-05-23T03:16:20;11.10;;;5.70;;
34035;SDS011;63481;52.588;22.472;2023-05-23T03:17:13;11.90;;;6.90;;
34035;SDS011;63481;52.588;22.472;2023-05-23T03:18:06;13.00;;;6.70;;
34035;SDS011;63481;52.588;22.472;2023-05-23T03:18:59;13.30;;;7.00;;
34035;SDS011;63481;52.588;22.472;2023-05-23T03:19:52;11.90;;;6.80;;
34035;SDS011;63481;52.588;22.472;2023-05-23T03:20:44;14.60;;;6.60;;
34035;SDS011;63481;52.588;22.472;2023-05-23T03:21:37;12.10;;;6.30;;
34035;SDS011;63481;52.588;22.472;2023-05-23T03:22:30;12.20;;;6.70;;
34035;SDS011;63481;52.588;22.472;2023-05-23T03:23:22;16.10;;;6.60;;
34035;SDS011;63481;52.588;22.472;2023-05-23T03:24:15;10.70;;;6.60;;
34035;SDS011;63481;52.588;22.472;2023-05-23T03:25:08;13.80;;;6.60;;
34035;SDS011;63481;52.588;22.472;2023-05-23T03:26:01;13.50;;;6.70;;
34035;SDS011;63481;52.588;22.472;2023-05-23T03:26:54;12.00;;;6.00;;
34035;SDS011;63481;52.588;22.472;2023-05-23T03:27:47;15.00;;;6.90;;
34035;SDS011;63481;52.588;22.472;2023-05-23T03:28:39;13.00;;;6.40;;
34035;SDS011;63481;52.588;22.472;2023-05-23T03:29:32;17.90;;;6.30;;
34035;SDS011;63481;52.588;22.472;2023-05-23T03:30:24;11.20;;;6.00;;
34035;SDS011;63481;52.588;22.472;2023-05-23T03:31:17;12.70;;;5.90;;
34035;SDS011;63481;52.588;22.472;2023-05-23T03:32:09;10.30;;;6.10;;
34035;SDS011;63481;52.588;22.472;2023-05-23T03:33:02;10.90;;;6.30;;
34035;SDS011;63481;52.588;22.472;2023-05-23T03:33:55;10.10;;;6.20;;
34035;SDS011;63481;52.588;22.472;2023-05-23T03:34:47;11.30;;;5.80;;
34035;SDS011;63481;52.588;22.472;2023-05-23T03:35:40;11.20;;;6.20;;
34035;SDS011;63481;52.588;22.472;2023-05-23T03:36:32;12.80;;;5.90;;
34035;SDS011;63481;52.588;22.472;2023-05-23T03:37:25;12.90;;;6.60;;
34035;SDS011;63481;52.588;22.472;2023-05-23T03:38:18;12.40;;;6.60;;
34035;SDS011;63481;52.588;22.472;2023-05-23T03:39:10;14.60;;;6.70;;
34035;SDS011;63481;52.588;22.472;2023-05-23T03:40:03;13.00;;;6.50;;
34035;SDS011;63481;52.588;22.472;2023-05-23T03:40:56;13.10;;;5.90;;
34035;SDS011;63481;52.588;22.472;2023-05-23T03:41:49;13.30;;;6.90;;
34035;SDS011;63481;52.588;22.472;2023-05-23T03:42:42;11.70;;;6.70;;
34035;SDS011;63481;52.588;22.472;2023-05-23T03:43:35;10.30;;;6.50;;
34035;SDS011;63481;52.588;22.472;2023-05-23T03:44:27;9.50;;;5.70;;
34035;SDS011;63481;52.588;22.472;2023-05-23T03:45:20;11.10;;;6.00;;
34035;SDS011;63481;52.588;22.472;2023-05-23T03:46:12;12.10;;;6.60;;
34035;SDS011;63481;52.588;22.472;2023-05-23T03:47:06;12.20;;;7.20;;
34035;SDS011;63481;52.588;22.472;2023-05-23T03:47:59;12.70;;;6.60;;
34035;SDS011;63481;52.588;22.472;2023-05-23T03:48:52;11.40;;;6.50;;
34035;SDS011;63481;52.588;22.472;2023-05-23T03:49:45;11.80;;;7.00;;
34035;SDS011;63481;52.588;22.472;2023-05-23T03:50:38;12.20;;;6.70;;
34035;SDS011;63481;52.588;22.472;2023-05-23T03:51:31;10.00;;;6.10;;
34035;SDS011;63481;52.588;22.472;2023-05-23T03:52:25;13.40;;;6.60;;
34035;SDS011;63481;52.588;22.472;2023-05-23T03:53:17;11.70;;;6.30;;
34035;SDS011;63481;52.588;22.472;2023-05-23T03:54:10;15.40;;;6.90;;
34035;SDS011;63481;52.588;22.472;2023-05-23T03:55:03;13.40;;;6.60;;
34035;SDS011;63481;52.588;22.472;2023-05-23T03:55:56;11.60;;;6.60;;
34035;SDS011;63481;52.588;22.472;2023-05-23T03:56:48;14.20;;;6.60;;
34035;SDS011;63481;52.588;22.472;2023-05-23T03:57:41;12.50;;;6.50;;
34035;SDS011;63481;52.588;22.472;2023-05-23T03:58:33;11.60;;;6.70;;
34035;SDS011;63481;52.588;22.472;2023-05-23T03:59:32;12.30;;;6.40;;
34035;SDS011;63481;52.588;22.472;2023-05-23T04:00:25;14.10;;;6.70;;
34035;SDS011;63481;52.588;22.472;2023-05-23T04:01:18;11.90;;;6.50;;
34035;SDS011;63481;52.588;22.472;2023-05-23T04:02:12;14.10;;;6.30;;
34035;SDS011;63481;52.588;22.472;2023-05-23T04:03:05;15.80;;;6.90;;
34035;SDS011;63481;52.588;22.472;2023-05-23T04:03:57;10.90;;;6.50;;
34035;SDS011;63481;52.588;22.472;2023-05-23T04:04:52;12.90;;;6.80;;
34035;SDS011;63481;52.588;22.472;2023-05-23T04:05:45;13.50;;;6.80;;
34035;SDS011;63481;52.588;22.472;2023-05-23T04:06:38;11.70;;;6.40;;
34035;SDS011;63481;52.588;22.472;2023-05-23T04:07:30;13.10;;;6.30;;
34035;SDS011;63481;52.588;22.472;2023-05-23T04:08:26;15.80;;;6.40;;
34035;SDS011;63481;52.588;22.472;2023-05-23T04:09:18;12.30;;;6.50;;
34035;SDS011;63481;52.588;22.472;2023-05-23T04:10:13;11.50;;;6.80;;
34035;SDS011;63481;52.588;22.472;2023-05-23T04:11:06;10.10;;;6.20;;
34035;SDS011;63481;52.588;22.472;2023-05-23T04:12:01;14.70;;;6.60;;
34035;SDS011;63481;52.588;22.472;2023-05-23T04:12:54;10.90;;;6.10;;
34035;SDS011;63481;52.588;22.472;2023-05-23T04:13:48;16.10;;;6.80;;
34035;SDS011;63481;52.588;22.472;2023-05-23T04:14:41;14.00;;;7.60;;
34035;SDS011;63481;52.588;22.472;2023-05-23T04:15:34;13.30;;;6.50;;
34035;SDS011;63481;52.588;22.472;2023-05-23T04:16:32;11.40;;;6.50;;
34035;SDS011;63481;52.588;22.472;2023-05-23T04:17:27;11.20;;;6.40;;
34035;SDS011;63481;52.588;22.472;2023-05-23T04:18:22;9.50;;;5.70;;
34035;SDS011;63481;52.588;22.472;2023-05-23T04:19:15;13.70;;;5.90;;
34035;SDS011;63481;52.588;22.472;2023-05-23T04:20:08;12.20;;;6.90;;
34035;SDS011;63481;52.588;22.472;2023-05-23T04:21:01;10.40;;;5.90;;
34035;SDS011;63481;52.588;22.472;2023-05-23T04:21:54;16.00;;;6.50;;
34035;SDS011;63481;52.588;22.472;2023-05-23T04:22:47;14.10;;;6.40;;
34035;SDS011;63481;52.588;22.472;2023-05-23T04:23:39;9.90;;;6.10;;
34035;SDS011;63481;52.588;22.472;2023-05-23T04:24:32;17.40;;;6.70;;
34035;SDS011;63481;52.588;22.472;2023-05-23T04:25:25;10.10;;;5.80;;
34035;SDS011;63481;52.588;22.472;2023-05-23T04:26:35;11.40;;;6.30;;
34035;SDS011;63481;52.588;22.472;2023-05-23T04:27:28;12.90;;;6.10;;
34035;SDS011;63481;52.588;22.472;2023-05-23T04:28:22;10.20;;;6.10;;
34035;SDS011;63481;52.588;22.472;2023-05-23T04:29:14;9.60;;;5.20;;
34035;SDS011;63481;52.588;22.472;2023-05-23T04:30:07;10.30;;;5.60;;
34035;SDS011;63481;52.588;22.472;2023-05-23T04:31:03;11.60;;;5.90;;
34035;SDS011;63481;52.588;22.472;2023-05-23T04:31:59;12.00;;;5.50;;
34035;SDS011;63481;52.588;22.472;2023-05-23T04:32:52;10.30;;;5.90;;
34035;SDS011;63481;52.588;22.472;2023-05-23T04:33:44;12.80;;;6.90;;
34035;SDS011;63481;52.588;22.472;2023-05-23T04:34:37;15.30;;;6.70;;
34035;SDS011;63481;52.588;22.472;2023-05-23T04:35:32;11.40;;;6.10;;
34035;SDS011;63481;52.588;22.472;2023-05-23T04:36:25;9.60;;;5.90;;
34035;SDS011;63481;52.588;22.472;2023-05-23T04:37:20;9.20;;;6.10;;
34035;SDS011;63481;52.588;22.472;2023-05-23T04:38:13;9.80;;;6.00;;
34035;SDS011;63481;52.588;22.472;2023-05-23T04:39:06;10.20;;;5.90;;
34035;SDS011;63481;52.588;22.472;2023-05-23T04:40:03;11.00;;;5.90;;
34035;SDS011;63481;52.588;22.472;2023-05-23T04:41:06;11.20;;;5.40;;
34035;SDS011;63481;52.588;22.472;2023-05-23T04:42:33;9.00;;;5.50;;
34035;SDS011;63481;52.588;22.472;2023-05-23T04:43:35;10.70;;;6.00;;
34035;SDS011;63481;52.588;22.472;2023-05-23T04:44:46;14.70;;;5.40;;
34035;SDS011;63481;52.588;22.472;2023-05-23T04:45:55;10.60;;;5.30;;
34035;SDS011;63481;52.588;22.472;2023-05-23T04:47:03;10.20;;;5.40;;
34035;SDS011;63481;52.588;22.472;2023-05-23T04:48:09;11.20;;;5.20;;
34035;SDS011;63481;52.588;22.472;2023-05-23T04:49:08;10.20;;;4.90;;
34035;SDS011;63481;52.588;22.472;2023-05-23T04:50:01;9.00;;;4.70;;
34035;SDS011;63481;52.588;22.472;2023-05-23T04:50:56;11.10;;;5.30;;
34035;SDS011;63481;52.588;22.472;2023-05-23T04:51:53;8.50;;;4.80;;
34035;SDS011;63481;52.588;22.472;2023-05-23T04:52:51;11.90;;;4.90;;
34035;SDS011;63481;52.588;22.472;2023-05-23T04:53:44;9.50;;;5.30;;
34035;SDS011;63481;52.588;22.472;2023-05-23T04:54:37;10.00;;;5.20;;
34035;SDS011;63481;52.588;22.472;2023-05-23T04:55:31;8.50;;;4.80;;
34035;SDS011;63481;52.588;22.472;2023-05-23T04:56:24;9.20;;;4.80;;
34035;SDS011;63481;52.588;22.472;2023-05-23T04:57:19;12.00;;;5.30;;
34035;SDS011;63481;52.588;22.472;2023-05-23T04:58:12;9.50;;;4.60;;
34035;SDS011;63481;52.588;22.472;2023-05-23T04:59:04;12.30;;;5.30;;
34035;SDS011;63481;52.588;22.472;2023-05-23T04:59:59;12.90;;;5.30;;
34035;SDS011;63481;52.588;22.472;2023-05-23T05:00:53;10.20;;;5.10;;
34035;SDS011;63481;52.588;22.472;2023-05-23T05:01:46;9.30;;;5.30;;
34035;SDS011;63481;52.588;22.472;2023-05-23T05:02:39;10.80;;;5.30;;
34035;SDS011;63481;52.588;22.472;2023-05-23T05:03:32;15.10;;;5.90;;
34035;SDS011;63481;52.588;22.472;2023-05-23T05:04:25;9.30;;;5.20;;
34035;SDS011;63481;52.588;22.472;2023-05-23T05:05:17;8.10;;;5.00;;
34035;SDS011;63481;52.588;22.472;2023-05-23T05:06:10;10.40;;;5.40;;
34035;SDS011;63481;52.588;22.472;2023-05-23T05:07:03;9.90;;;5.00;;
34035;SDS011;63481;52.588;22.472;2023-05-23T05:07:56;10.40;;;4.90;;
34035;SDS011;63481;52.588;22.472;2023-05-23T05:08:49;10.20;;;5.20;;
34035;SDS011;63481;52.588;22.472;2023-05-23T05:09:42;11.80;;;5.30;;
34035;SDS011;63481;52.588;22.472;2023-05-23T05:10:37;8.10;;;4.70;;
34035;SDS011;63481;52.588;22.472;2023-05-23T05:11:31;12.30;;;5.00;;
34035;SDS011;63481;52.588;22.472;2023-05-23T05:12:24;13.20;;;4.60;;
34035;SDS011;63481;52.588;22.472;2023-05-23T05:13:17;7.60;;;4.50;;
34035;SDS011;63481;52.588;22.472;2023-05-23T05:14:13;13.60;;;4.70;;
34035;SDS011;63481;52.588;22.472;2023-05-23T05:15:06;7.80;;;4.50;;
34035;SDS011;63481;52.588;22.472;2023-05-23T05:16:00;8.70;;;4.70;;
34035;SDS011;63481;52.588;22.472;2023-05-23T05:16:53;8.20;;;4.60;;
34035;SDS011;63481;52.588;22.472;2023-05-23T05:17:47;9.20;;;4.30;;
34035;SDS011;63481;52.588;22.472;2023-05-23T05:18:42;12.10;;;5.40;;
34035;SDS011;63481;52.588;22.472;2023-05-23T05:19:35;10.80;;;5.10;;
34035;SDS011;63481;52.588;22.472;2023-05-23T05:20:28;9.70;;;4.70;;
34035;SDS011;63481;52.588;22.472;2023-05-23T05:21:20;10.10;;;5.00;;
34035;SDS011;63481;52.588;22.472;2023-05-23T05:22:13;10.30;;;4.70;;
34035;SDS011;63481;52.588;22.472;2023-05-23T05:23:06;10.20;;;4.50;;
34035;SDS011;63481;52.588;22.472;2023-05-23T05:24:01;13.70;;;5.10;;
34035;SDS011;63481;52.588;22.472;2023-05-23T05:24:55;11.60;;;5.00;;